sensor_id;sensor_type;location;lat;lon;timestamp;temperature;humidity
12315;DHT22;23886;46.614;14.276;2023-04-05T00:20:59;-0.90;85.60
12315;DHT22;23886;46.614;14.276;2023-04-05T00:27:11;-1.00;88.10
12315;DHT22;23886;46.614;14.276;2023-04-05T00:57:29;-1.50;90.10
12315;DHT22;23886;46.614;14.276;2023-04-05T01:00:11;-1.50;90.70
12315;DHT22;23886;46.614;14.276;2023-04-05T01:06:19;-1.60;90.50
12315;DHT22;23886;46.614;14.276;2023-04-05T01:42:58;-2.20;91.90
12315;DHT22;23886;46.614;14.276;2023-04-05T01:46:15;-2.20;92.30
12315;DHT22;23886;46.614;14.276;2023-04-05T02:09:02;-2.40;93.60
12315;DHT22;23886;46.614;14.276;2023-04-05T02:11:56;-2.40;93.10
12315;DHT22;23886;46.614;14.276;2023-04-05T02:14:30;-2.50;93.10
12315;DHT22;23886;46.614;14.276;2023-04-05T02:17:16;-2.30;93.40
12315;DHT22;23886;46.614;14.276;2023-04-05T02:19:51;-2.20;93.20
12315;DHT22;23886;46.614;14.276;2023-04-05T02:22:39;-2.30;92.90
12315;DHT22;23886;46.614;14.276;2023-04-05T02:25:32;-2.40;92.90
12315;DHT22;23886;46.614;14.276;2023-04-05T02:28:31;-2.60;93.30
12315;DHT22;23886;46.614;14.276;2023-04-05T02:45:07;-2.50;93.60
12315;DHT22;23886;46.614;14.276;2023-04-05T02:51:23;-2.80;94.10
12315;DHT22;23886;46.614;14.276;2023-04-05T02:57:47;-2.70;93.80
12315;DHT22;23886;46.614;14.276;2023-04-05T03:14:27;-2.80;94.60
12315;DHT22;23886;46.614;14.276;2023-04-05T04:00:56;-3.10;94.80
12315;DHT22;23886;46.614;14.276;2023-04-05T04:03:50;-3.20;94.90
12315;DHT22;23886;46.614;14.276;2023-04-05T04:47:23;-3.40;97.60
12315;DHT22;23886;46.614;14.276;2023-04-05T04:53:31;-3.30;97.30
12315;DHT22;23886;46.614;14.276;2023-04-05T05:40:04;-2.40;96.90
12315;DHT22;23886;46.614;14.276;2023-04-05T05:42:31;-2.40;96.40
12315;DHT22;23886;46.614;14.276;2023-04-05T05:45:02;-2.40;96.50
12315;DHT22;23886;46.614;14.276;2023-04-05T05:47:29;-2.40;96.50
12315;DHT22;23886;46.614;14.276;2023-04-05T05:49:56;-2.20;96.50
12315;DHT22;23886;46.614;14.276;2023-04-05T05:52:23;-2.10;96.30
12315;DHT22;23886;46.614;14.276;2023-04-05T05:54:50;-2.00;95.70
12315;DHT22;23886;46.614;14.276;2023-04-05T05:57:19;-1.90;95.00
12315;DHT22;23886;46.614;14.276;2023-04-05T05:59:46;-1.60;94.40
12315;DHT22;23886;46.614;14.276;2023-04-05T06:02:13;-1.50;94.10
12315;DHT22;23886;46.614;14.276;2023-04-05T06:04:40;-1.30;93.10
12315;DHT22;23886;46.614;14.276;2023-04-05T06:07:08;-1.30;92.90
12315;DHT22;23886;46.614;14.276;2023-04-05T06:09:35;-1.00;92.60
12315;DHT22;23886;46.614;14.276;2023-04-05T06:12:02;-0.90;92.30
12315;DHT22;23886;46.614;14.276;2023-04-05T06:14:31;-1.00;92.30
12315;DHT22;23886;46.614;14.276;2023-04-05T06:16:58;-1.00;92.30
12315;DHT22;23886;46.614;14.276;2023-04-05T06:19:25;-1.00;91.40
12315;DHT22;23886;46.614;14.276;2023-04-05T06:21:52;-0.90;91.50
12315;DHT22;23886;46.614;14.276;2023-04-05T06:24:19;-0.80;91.90
12315;DHT22;23886;46.614;14.276;2023-04-05T06:26:46;-0.60;91.10
12315;DHT22;23886;46.614;14.276;2023-04-05T06:29:13;-0.60;91.20
12315;DHT22;23886;46.614;14.276;2023-04-05T06:31:41;-0.40;90.90
12315;DHT22;23886;46.614;14.276;2023-04-05T06:34:11;-0.40;90.30
12315;DHT22;23886;46.614;14.276;2023-04-05T06:36:37;-0.30;90.90
12315;DHT22;23886;46.614;14.276;2023-04-05T06:39:05;-0.20;90.30
12315;DHT22;23886;46.614;14.276;2023-04-05T06:41:32;-0.10;90.00
12315;DHT22;23886;46.614;14.276;2023-04-05T06:44:00;-0.20;89.80
12315;DHT22;23886;46.614;14.276;2023-04-05T06:46:27;0.00;89.50
12315;DHT22;23886;46.614;14.276;2023-04-05T06:48:57;0.20;88.60
12315;DHT22;23886;46.614;14.276;2023-04-05T06:51:24;0.40;88.40
12315;DHT22;23886;46.614;14.276;2023-04-05T06:53:53;0.30;88.10
12315;DHT22;23886;46.614;14.276;2023-04-05T06:56:20;0.50;89.60
12315;DHT22;23886;46.614;14.276;2023-04-05T06:58:47;0.70;88.40
12315;DHT22;23886;46.614;14.276;2023-04-05T07:01:15;0.70;88.60
12315;DHT22;23886;46.614;14.276;2023-04-05T07:03:43;0.90;88.40
12315;DHT22;23886;46.614;14.276;2023-04-05T07:06:11;1.10;86.70
12315;DHT22;23886;46.614;14.276;2023-04-05T07:08:38;1.20;86.40
12315;DHT22;23886;46.614;14.276;2023-04-05T07:11:05;0.90;85.60
12315;DHT22;23886;46.614;14.276;2023-04-05T07:13:33;1.10;87.40
12315;DHT22;23886;46.614;14.276;2023-04-05T07:16:01;1.30;85.50
12315;DHT22;23886;46.614;14.276;2023-04-05T07:18:28;1.10;85.20
12315;DHT22;23886;46.614;14.276;2023-04-05T07:20:56;1.20;86.00
12315;DHT22;23886;46.614;14.276;2023-04-05T07:23:28;1.30;84.60
12315;DHT22;23886;46.614;14.276;2023-04-05T07:25:59;1.50;84.00
12315;DHT22;23886;46.614;14.276;2023-04-05T07:28:29;1.60;84.00
12315;DHT22;23886;46.614;14.276;2023-04-05T07:30:56;1.90;83.80
12315;DHT22;23886;46.614;14.276;2023-04-05T07:33:23;2.10;83.90
12315;DHT22;23886;46.614;14.276;2023-04-05T07:35:51;2.10;82.90
12315;DHT22;23886;46.614;14.276;2023-04-05T07:38:18;2.00;83.30
12315;DHT22;23886;46.614;14.276;2023-04-05T07:40:48;2.00;81.60
12315;DHT22;23886;46.614;14.276;2023-04-05T07:43:17;2.20;82.90
12315;DHT22;23886;46.614;14.276;2023-04-05T07:45:44;2.40;82.10
12315;DHT22;23886;46.614;14.276;2023-04-05T07:48:11;2.50;80.90
12315;DHT22;23886;46.614;14.276;2023-04-05T07:50:38;2.60;81.30
12315;DHT22;23886;46.614;14.276;2023-04-05T07:53:05;2.70;81.80
12315;DHT22;23886;46.614;14.276;2023-04-05T07:55:33;2.70;80.60
12315;DHT22;23886;46.614;14.276;2023-04-05T07:58:04;3.00;79.10
12315;DHT22;23886;46.614;14.276;2023-04-05T08:00:31;2.90;79.50
12315;DHT22;23886;46.614;14.276;2023-04-05T08:02:58;3.10;79.00
12315;DHT22;23886;46.614;14.276;2023-04-05T08:05:27;3.20;78.00
12315;DHT22;23886;46.614;14.276;2023-04-05T08:07:54;3.30;80.10
12315;DHT22;23886;46.614;14.276;2023-04-05T08:10:22;3.10;79.30
12315;DHT22;23886;46.614;14.276;2023-04-05T08:12:49;3.10;78.40
12315;DHT22;23886;46.614;14.276;2023-04-05T08:15:17;3.00;77.80
12315;DHT22;23886;46.614;14.276;2023-04-05T08:17:44;3.30;78.60
12315;DHT22;23886;46.614;14.276;2023-04-05T08:20:12;3.30;76.40
12315;DHT22;23886;46.614;14.276;2023-04-05T08:22:39;3.30;77.20
12315;DHT22;23886;46.614;14.276;2023-04-05T08:25:07;3.40;77.90
12315;DHT22;23886;46.614;14.276;2023-04-05T08:27:34;3.40;77.30
12315;DHT22;23886;46.614;14.276;2023-04-05T08:30:01;3.30;77.70
12315;DHT22;23886;46.614;14.276;2023-04-05T08:32:30;3.80;78.10
12315;DHT22;23886;46.614;14.276;2023-04-05T08:34:57;3.90;77.40
12315;DHT22;23886;46.614;14.276;2023-04-05T08:37:24;3.80;76.10
12315;DHT22;23886;46.614;14.276;2023-04-05T08:39:52;3.90;77.00
12315;DHT22;23886;46.614;14.276;2023-04-05T08:42:28;4.00;75.00
12315;DHT22;23886;46.614;14.276;2023-04-05T08:44:56;4.00;76.40
12315;DHT22;23886;46.614;14.276;2023-04-05T08:47:26;4.30;72.70
12315;DHT22;23886;46.614;14.276;2023-04-05T08:49:55;4.20;70.50
12315;DHT22;23886;46.614;14.276;2023-04-05T08:52:22;4.10;68.30
12315;DHT22;23886;46.614;14.276;2023-04-05T08:54:49;4.40;68.70
12315;DHT22;23886;46.614;14.276;2023-04-05T08:57:18;4.50;69.10
12315;DHT22;23886;46.614;14.276;2023-04-05T08:59:48;4.60;67.30
12315;DHT22;23886;46.614;14.276;2023-04-05T09:02:18;4.60;66.50
12315;DHT22;23886;46.614;14.276;2023-04-05T09:04:47;4.70;67.80
12315;DHT22;23886;46.614;14.276;2023-04-05T09:07:16;4.90;70.00
12315;DHT22;23886;46.614;14.276;2023-04-05T09:09:48;5.00;69.60
12315;DHT22;23886;46.614;14.276;2023-04-05T09:12:20;4.70;69.10
12315;DHT22;23886;46.614;14.276;2023-04-05T09:14:48;4.90;69.30
12315;DHT22;23886;46.614;14.276;2023-04-05T09:17:16;5.10;68.70
12315;DHT22;23886;46.614;14.276;2023-04-05T09:19:44;5.10;67.80
12315;DHT22;23886;46.614;14.276;2023-04-05T09:22:16;5.20;68.10
12315;DHT22;23886;46.614;14.276;2023-04-05T09:24:45;5.20;68.20
12315;DHT22;23886;46.614;14.276;2023-04-05T09:27:13;5.00;65.90
12315;DHT22;23886;46.614;14.276;2023-04-05T09:29:41;5.10;67.30
12315;DHT22;23886;46.614;14.276;2023-04-05T09:32:10;5.50;66.90
12315;DHT22;23886;46.614;14.276;2023-04-05T09:34:37;5.70;63.60
12315;DHT22;23886;46.614;14.276;2023-04-05T09:37:12;6.00;63.50
12315;DHT22;23886;46.614;14.276;2023-04-05T09:39:42;6.00;61.60
12315;DHT22;23886;46.614;14.276;2023-04-05T09:42:10;6.00;59.50
12315;DHT22;23886;46.614;14.276;2023-04-05T09:44:51;6.00;62.00
12315;DHT22;23886;46.614;14.276;2023-04-05T09:47:19;6.00;61.00
12315;DHT22;23886;46.614;14.276;2023-04-05T09:49:46;6.00;62.10
12315;DHT22;23886;46.614;14.276;2023-04-05T09:52:21;6.10;61.90
12315;DHT22;23886;46.614;14.276;2023-04-05T09:54:51;6.30;61.50
12315;DHT22;23886;46.614;14.276;2023-04-05T09:57:18;6.20;59.90
12315;DHT22;23886;46.614;14.276;2023-04-05T09:59:46;6.40;61.50
12315;DHT22;23886;46.614;14.276;2023-04-05T10:02:13;6.50;61.10
12315;DHT22;23886;46.614;14.276;2023-04-05T10:04:41;6.70;60.20
12315;DHT22;23886;46.614;14.276;2023-04-05T10:07:11;6.60;59.60
12315;DHT22;23886;46.614;14.276;2023-04-05T10:09:39;6.40;60.10
12315;DHT22;23886;46.614;14.276;2023-04-05T10:12:08;6.70;59.40
12315;DHT22;23886;46.614;14.276;2023-04-05T10:14:36;6.50;58.90
12315;DHT22;23886;46.614;14.276;2023-04-05T10:17:08;6.40;60.40
12315;DHT22;23886;46.614;14.276;2023-04-05T10:19:48;6.70;59.90
12315;DHT22;23886;46.614;14.276;2023-04-05T10:22:22;6.90;60.70
12315;DHT22;23886;46.614;14.276;2023-04-05T10:24:53;6.80;60.00
12315;DHT22;23886;46.614;14.276;2023-04-05T10:27:29;6.60;60.50
12315;DHT22;23886;46.614;14.276;2023-04-05T10:30:03;6.60;59.60
12315;DHT22;23886;46.614;14.276;2023-04-05T10:32:52;6.80;61.60
12315;DHT22;23886;46.614;14.276;2023-04-05T10:35:29;7.00;63.50
12315;DHT22;23886;46.614;14.276;2023-04-05T10:38:11;7.40;63.50
12315;DHT22;23886;46.614;14.276;2023-04-05T10:40:43;7.50;60.70
12315;DHT22;23886;46.614;14.276;2023-04-05T10:43:16;7.30;60.00
12315;DHT22;23886;46.614;14.276;2023-04-05T10:45:47;7.30;60.00
12315;DHT22;23886;46.614;14.276;2023-04-05T10:48:20;7.10;60.80
12315;DHT22;23886;46.614;14.276;2023-04-05T10:50:51;7.40;62.10
12315;DHT22;23886;46.614;14.276;2023-04-05T10:53:20;8.00;63.20
12315;DHT22;23886;46.614;14.276;2023-04-05T10:55:49;8.20;61.10
12315;DHT22;23886;46.614;14.276;2023-04-05T10:58:18;8.20;60.40
12315;DHT22;23886;46.614;14.276;2023-04-05T11:00:46;8.00;58.90
12315;DHT22;23886;46.614;14.276;2023-04-05T11:03:45;7.70;59.40
12315;DHT22;23886;46.614;14.276;2023-04-05T11:06:23;7.80;60.10
12315;DHT22;23886;46.614;14.276;2023-04-05T11:08:54;8.40;60.90
12315;DHT22;23886;46.614;14.276;2023-04-05T11:11:22;8.40;58.50
12315;DHT22;23886;46.614;14.276;2023-04-05T11:13:54;8.50;59.10
12315;DHT22;23886;46.614;14.276;2023-04-05T11:16:22;8.60;60.00
12315;DHT22;23886;46.614;14.276;2023-04-05T11:18:50;8.50;57.90
12315;DHT22;23886;46.614;14.276;2023-04-05T11:21:21;8.60;58.40
12315;DHT22;23886;46.614;14.276;2023-04-05T11:24:04;8.50;55.90
12315;DHT22;23886;46.614;14.276;2023-04-05T11:26:34;8.30;57.70
12315;DHT22;23886;46.614;14.276;2023-04-05T11:29:46;8.30;57.40
12315;DHT22;23886;46.614;14.276;2023-04-05T11:32:14;8.60;59.10
12315;DHT22;23886;46.614;14.276;2023-04-05T11:34:42;9.10;60.40
12315;DHT22;23886;46.614;14.276;2023-04-05T11:37:09;9.00;57.60
12315;DHT22;23886;46.614;14.276;2023-04-05T11:39:37;9.30;58.00
12315;DHT22;23886;46.614;14.276;2023-04-05T11:42:09;9.50;59.30
12315;DHT22;23886;46.614;14.276;2023-04-05T11:44:44;9.10;56.60
12315;DHT22;23886;46.614;14.276;2023-04-05T11:47:11;9.40;58.20
12315;DHT22;23886;46.614;14.276;2023-04-05T11:49:39;9.60;58.40
12315;DHT22;23886;46.614;14.276;2023-04-05T11:52:14;9.10;57.50
12315;DHT22;23886;46.614;14.276;2023-04-05T11:54:42;9.30;59.00
12315;DHT22;23886;46.614;14.276;2023-04-05T11:57:17;9.50;57.80
12315;DHT22;23886;46.614;14.276;2023-04-05T11:59:48;9.90;58.40
12315;DHT22;23886;46.614;14.276;2023-04-05T12:02:16;10.10;56.20
12315;DHT22;23886;46.614;14.276;2023-04-05T12:04:43;10.50;54.30
12315;DHT22;23886;46.614;14.276;2023-04-05T12:07:15;10.20;55.10
12315;DHT22;23886;46.614;14.276;2023-04-05T12:10:03;10.50;54.70
12315;DHT22;23886;46.614;14.276;2023-04-05T12:12:36;10.70;55.30
12315;DHT22;23886;46.614;14.276;2023-04-05T12:15:06;10.60;56.70
12315;DHT22;23886;46.614;14.276;2023-04-05T12:17:42;11.10;57.60
12315;DHT22;23886;46.614;14.276;2023-04-05T12:20:11;10.90;57.80
12315;DHT22;23886;46.614;14.276;2023-04-05T12:22:40;11.30;56.10
12315;DHT22;23886;46.614;14.276;2023-04-05T12:25:08;10.60;55.70
12315;DHT22;23886;46.614;14.276;2023-04-05T12:27:36;11.10;58.00
12315;DHT22;23886;46.614;14.276;2023-04-05T12:30:13;11.10;57.90
12315;DHT22;23886;46.614;14.276;2023-04-05T12:32:44;11.40;57.10
12315;DHT22;23886;46.614;14.276;2023-04-05T12:35:16;11.30;55.50
12315;DHT22;23886;46.614;14.276;2023-04-05T12:37:43;11.20;57.10
12315;DHT22;23886;46.614;14.276;2023-04-05T12:40:11;11.40;56.00
12315;DHT22;23886;46.614;14.276;2023-04-05T12:42:39;11.20;56.20
12315;DHT22;23886;46.614;14.276;2023-04-05T12:45:11;11.30;55.40
12315;DHT22;23886;46.614;14.276;2023-04-05T12:47:48;11.50;57.00
12315;DHT22;23886;46.614;14.276;2023-04-05T12:50:17;11.90;58.20
12315;DHT22;23886;46.614;14.276;2023-04-05T12:52:54;12.50;52.50
12315;DHT22;23886;46.614;14.276;2023-04-05T12:55:21;12.50;53.30
12315;DHT22;23886;46.614;14.276;2023-04-05T12:57:50;12.30;54.40
12315;DHT22;23886;46.614;14.276;2023-04-05T13:00:20;12.60;53.70
12315;DHT22;23886;46.614;14.276;2023-04-05T13:02:51;12.70;53.90
12315;DHT22;23886;46.614;14.276;2023-04-05T13:05:22;12.20;52.80
12315;DHT22;23886;46.614;14.276;2023-04-05T13:07:49;12.20;53.70
12315;DHT22;23886;46.614;14.276;2023-04-05T13:10:17;11.80;55.30
12315;DHT22;23886;46.614;14.276;2023-04-05T13:12:45;11.40;55.90
12315;DHT22;23886;46.614;14.276;2023-04-05T13:15:12;11.70;56.10
12315;DHT22;23886;46.614;14.276;2023-04-05T13:17:41;11.70;54.60
12315;DHT22;23886;46.614;14.276;2023-04-05T13:20:10;12.10;54.10
12315;DHT22;23886;46.614;14.276;2023-04-05T13:22:38;12.60;54.30
12315;DHT22;23886;46.614;14.276;2023-04-05T13:25:05;13.10;53.70
12315;DHT22;23886;46.614;14.276;2023-04-05T13:27:33;13.00;53.60
12315;DHT22;23886;46.614;14.276;2023-04-05T13:29:59;13.50;55.00
12315;DHT22;23886;46.614;14.276;2023-04-05T13:32:27;15.20;50.50
12315;DHT22;23886;46.614;14.276;2023-04-05T13:34:55;16.20;49.20
12315;DHT22;23886;46.614;14.276;2023-04-05T13:37:22;16.30;49.40
12315;DHT22;23886;46.614;14.276;2023-04-05T13:39:49;15.80;49.50
12315;DHT22;23886;46.614;14.276;2023-04-05T13:42:16;16.60;49.00
12315;DHT22;23886;46.614;14.276;2023-04-05T13:44:43;15.70;49.30
12315;DHT22;23886;46.614;14.276;2023-04-05T13:47:10;16.30;49.60
12315;DHT22;23886;46.614;14.276;2023-04-05T13:49:39;15.90;49.30
12315;DHT22;23886;46.614;14.276;2023-04-05T13:52:07;15.60;49.30
12315;DHT22;23886;46.614;14.276;2023-04-05T13:54:34;15.70;49.30
12315;DHT22;23886;46.614;14.276;2023-04-05T13:57:02;16.50;48.30
12315;DHT22;23886;46.614;14.276;2023-04-05T13:59:28;14.90;49.90
12315;DHT22;23886;46.614;14.276;2023-04-05T14:01:56;15.20;50.50
12315;DHT22;23886;46.614;14.276;2023-04-05T14:04:23;16.90;47.40
12315;DHT22;23886;46.614;14.276;2023-04-05T14:06:50;16.40;46.70
12315;DHT22;23886;46.614;14.276;2023-04-05T14:09:19;15.80;48.80
12315;DHT22;23886;46.614;14.276;2023-04-05T14:11:46;14.60;49.50
12315;DHT22;23886;46.614;14.276;2023-04-05T14:14:13;14.90;51.70
12315;DHT22;23886;46.614;14.276;2023-04-05T14:16:40;16.00;48.70
12315;DHT22;23886;46.614;14.276;2023-04-05T14:19:07;16.10;46.00
12315;DHT22;23886;46.614;14.276;2023-04-05T14:21:34;16.20;47.70
12315;DHT22;23886;46.614;14.276;2023-04-05T14:24:01;16.80;48.10
12315;DHT22;23886;46.614;14.276;2023-04-05T14:26:30;18.30;46.40
12315;DHT22;23886;46.614;14.276;2023-04-05T14:28:57;16.50;46.80
12315;DHT22;23886;46.614;14.276;2023-04-05T14:31:24;16.70;47.60
12315;DHT22;23886;46.614;14.276;2023-04-05T14:33:51;18.10;46.40
12315;DHT22;23886;46.614;14.276;2023-04-05T14:36:18;17.30;46.60
12315;DHT22;23886;46.614;14.276;2023-04-05T14:38:45;17.70;45.90
12315;DHT22;23886;46.614;14.276;2023-04-05T14:41:13;17.20;46.30
12315;DHT22;23886;46.614;14.276;2023-04-05T14:43:41;15.60;48.40
12315;DHT22;23886;46.614;14.276;2023-04-05T14:46:08;15.50;48.60
12315;DHT22;23886;46.614;14.276;2023-04-05T14:48:35;15.10;48.90
12315;DHT22;23886;46.614;14.276;2023-04-05T14:51:02;16.60;46.60
12315;DHT22;23886;46.614;14.276;2023-04-05T14:53:30;15.90;47.90
12315;DHT22;23886;46.614;14.276;2023-04-05T14:55:57;16.60;47.80
12315;DHT22;23886;46.614;14.276;2023-04-05T14:58:24;17.40;46.20
12315;DHT22;23886;46.614;14.276;2023-04-05T15:00:54;15.70;47.40
12315;DHT22;23886;46.614;14.276;2023-04-05T15:03:22;15.00;47.80
12315;DHT22;23886;46.614;14.276;2023-04-05T15:05:50;15.60;49.10
12315;DHT22;23886;46.614;14.276;2023-04-05T15:08:17;14.80;47.30
12315;DHT22;23886;46.614;14.276;2023-04-05T15:10:44;14.80;47.80
12315;DHT22;23886;46.614;14.276;2023-04-05T15:13:12;14.90;47.80
12315;DHT22;23886;46.614;14.276;2023-04-05T15:15:39;15.80;47.60
12315;DHT22;23886;46.614;14.276;2023-04-05T15:18:07;16.10;45.40
12315;DHT22;23886;46.614;14.276;2023-04-05T15:20:35;14.80;47.70
12315;DHT22;23886;46.614;14.276;2023-04-05T15:23:02;14.20;48.70
12315;DHT22;23886;46.614;14.276;2023-04-05T15:25:29;14.90;48.70
12315;DHT22;23886;46.614;14.276;2023-04-05T15:27:56;16.10;47.00
12315;DHT22;23886;46.614;14.276;2023-04-05T15:30:24;15.60;47.90
12315;DHT22;23886;46.614;14.276;2023-04-05T15:32:53;15.80;46.80
12315;DHT22;23886;46.614;14.276;2023-04-05T15:35:22;16.30;47.80
12315;DHT22;23886;46.614;14.276;2023-04-05T15:37:49;15.70;48.50
12315;DHT22;23886;46.614;14.276;2023-04-05T15:40:16;14.90;47.50
12315;DHT22;23886;46.614;14.276;2023-04-05T15:42:44;14.70;47.80
12315;DHT22;23886;46.614;14.276;2023-04-05T15:45:11;13.20;49.90
12315;DHT22;23886;46.614;14.276;2023-04-05T15:47:38;12.90;50.90
12315;DHT22;23886;46.614;14.276;2023-04-05T15:50:06;12.80;51.00
12315;DHT22;23886;46.614;14.276;2023-04-05T15:52:34;13.50;50.50
12315;DHT22;23886;46.614;14.276;2023-04-05T15:55:02;13.20;50.30
12315;DHT22;23886;46.614;14.276;2023-04-05T15:57:29;13.80;50.20
12315;DHT22;23886;46.614;14.276;2023-04-05T15:59:56;14.10;49.70
12315;DHT22;23886;46.614;14.276;2023-04-05T16:02:23;14.00;49.10
12315;DHT22;23886;46.614;14.276;2023-04-05T16:04:51;13.70;50.60
12315;DHT22;23886;46.614;14.276;2023-04-05T16:07:18;12.90;51.40
12315;DHT22;23886;46.614;14.276;2023-04-05T16:09:46;13.10;51.60
12315;DHT22;23886;46.614;14.276;2023-04-05T16:12:13;13.30;51.70
12315;DHT22;23886;46.614;14.276;2023-04-05T16:14:40;13.30;51.80
12315;DHT22;23886;46.614;14.276;2023-04-05T16:17:07;13.10;51.50
12315;DHT22;23886;46.614;14.276;2023-04-05T16:19:34;12.90;51.60
12315;DHT22;23886;46.614;14.276;2023-04-05T16:22:02;13.30;51.60
12315;DHT22;23886;46.614;14.276;2023-04-05T16:24:29;13.70;50.70
12315;DHT22;23886;46.614;14.276;2023-04-05T16:26:59;13.90;49.80
12315;DHT22;23886;46.614;14.276;2023-04-05T16:29:26;13.70;51.60
12315;DHT22;23886;46.614;14.276;2023-04-05T16:31:53;14.10;50.90
12315;DHT22;23886;46.614;14.276;2023-04-05T16:34:20;14.60;50.10
12315;DHT22;23886;46.614;14.276;2023-04-05T16:36:47;13.90;50.20
12315;DHT22;23886;46.614;14.276;2023-04-05T16:39:15;13.10;51.30
12315;DHT22;23886;46.614;14.276;2023-04-05T16:41:42;12.60;52.20
12315;DHT22;23886;46.614;14.276;2023-04-05T16:44:10;11.70;53.20
12315;DHT22;23886;46.614;14.276;2023-04-05T16:46:37;11.80;52.80
12315;DHT22;23886;46.614;14.276;2023-04-05T16:49:04;11.50;52.90
12315;DHT22;23886;46.614;14.276;2023-04-05T16:51:33;11.10;54.00
12315;DHT22;23886;46.614;14.276;2023-04-05T16:54:00;10.80;54.00
12315;DHT22;23886;46.614;14.276;2023-04-05T16:56:28;10.50;54.00
12315;DHT22;23886;46.614;14.276;2023-04-05T16:58:56;10.40;54.20
12315;DHT22;23886;46.614;14.276;2023-04-05T17:01:24;10.30;54.70
12315;DHT22;23886;46.614;14.276;2023-04-05T17:03:51;10.40;54.90
12315;DHT22;23886;46.614;14.276;2023-04-05T17:06:18;10.10;54.30
12315;DHT22;23886;46.614;14.276;2023-04-05T17:08:45;9.40;56.00
12315;DHT22;23886;46.614;14.276;2023-04-05T17:11:13;8.70;57.50
12315;DHT22;23886;46.614;14.276;2023-04-05T17:13:40;8.40;58.40
12315;DHT22;23886;46.614;14.276;2023-04-05T17:16:09;8.20;58.10
12315;DHT22;23886;46.614;14.276;2023-04-05T17:18:38;8.00;58.70
12315;DHT22;23886;46.614;14.276;2023-04-05T17:21:05;7.90;59.70
12315;DHT22;23886;46.614;14.276;2023-04-05T17:23:32;7.70;59.60
12315;DHT22;23886;46.614;14.276;2023-04-05T17:26:00;7.70;59.60
12315;DHT22;23886;46.614;14.276;2023-04-05T17:28:27;7.50;59.50
12315;DHT22;23886;46.614;14.276;2023-04-05T17:30:54;7.20;59.70
12315;DHT22;23886;46.614;14.276;2023-04-05T17:33:22;7.20;60.10
12315;DHT22;23886;46.614;14.276;2023-04-05T17:35:50;7.10;60.10
12315;DHT22;23886;46.614;14.276;2023-04-05T17:38:17;6.90;60.40
12315;DHT22;23886;46.614;14.276;2023-04-05T17:40:44;6.90;60.90
12315;DHT22;23886;46.614;14.276;2023-04-05T17:43:11;6.80;61.20
12315;DHT22;23886;46.614;14.276;2023-04-05T17:45:38;6.70;61.40
12315;DHT22;23886;46.614;14.276;2023-04-05T17:48:05;6.60;61.80
12315;DHT22;23886;46.614;14.276;2023-04-05T17:50:35;6.60;61.90
12315;DHT22;23886;46.614;14.276;2023-04-05T17:53:03;6.50;62.40
12315;DHT22;23886;46.614;14.276;2023-04-05T17:55:31;6.40;61.60
12315;DHT22;23886;46.614;14.276;2023-04-05T17:57:58;6.30;62.50
12315;DHT22;23886;46.614;14.276;2023-04-05T18:00:25;6.30;63.50
12315;DHT22;23886;46.614;14.276;2023-04-05T18:02:52;6.20;62.50
12315;DHT22;23886;46.614;14.276;2023-04-05T18:05:19;6.10;62.70
12315;DHT22;23886;46.614;14.276;2023-04-05T18:07:46;6.00;63.50
12315;DHT22;23886;46.614;14.276;2023-04-05T18:10:15;6.00;63.50
12315;DHT22;23886;46.614;14.276;2023-04-05T18:12:42;5.90;63.50
12315;DHT22;23886;46.614;14.276;2023-04-05T18:15:09;5.90;64.30
12315;DHT22;23886;46.614;14.276;2023-04-05T18:17:37;5.90;63.90
12315;DHT22;23886;46.614;14.276;2023-04-05T18:20:06;5.80;64.40
12315;DHT22;23886;46.614;14.276;2023-04-05T18:22:33;5.80;64.20
12315;DHT22;23886;46.614;14.276;2023-04-05T18:25:00;5.70;64.90
12315;DHT22;23886;46.614;14.276;2023-04-05T18:27:30;5.60;64.80
12315;DHT22;23886;46.614;14.276;2023-04-05T18:29:57;5.70;65.30
12315;DHT22;23886;46.614;14.276;2023-04-05T18:32:24;5.60;65.00
12315;DHT22;23886;46.614;14.276;2023-04-05T18:34:51;5.50;65.60
12315;DHT22;23886;46.614;14.276;2023-04-05T18:37:18;5.50;65.40
12315;DHT22;23886;46.614;14.276;2023-04-05T18:39:45;5.40;66.10
12315;DHT22;23886;46.614;14.276;2023-04-05T18:42:12;5.30;66.80
12315;DHT22;23886;46.614;14.276;2023-04-05T18:44:41;5.30;66.80
12315;DHT22;23886;46.614;14.276;2023-04-05T18:47:08;5.20;66.80
12315;DHT22;23886;46.614;14.276;2023-04-05T18:49:35;5.10;67.60
12315;DHT22;23886;46.614;14.276;2023-04-05T18:52:02;5.10;67.40
12315;DHT22;23886;46.614;14.276;2023-04-05T18:54:29;5.10;67.60
12315;DHT22;23886;46.614;14.276;2023-04-05T18:56:56;5.20;67.40
12315;DHT22;23886;46.614;14.276;2023-04-05T18:59:23;5.10;67.40
12315;DHT22;23886;46.614;14.276;2023-04-05T19:01:52;5.00;67.30
12315;DHT22;23886;46.614;14.276;2023-04-05T19:04:19;5.00;67.70
12315;DHT22;23886;46.614;14.276;2023-04-05T19:06:46;5.00;67.60
12315;DHT22;23886;46.614;14.276;2023-04-05T19:09:13;5.00;68.00
12315;DHT22;23886;46.614;14.276;2023-04-05T19:11:41;5.00;68.20
12315;DHT22;23886;46.614;14.276;2023-04-05T19:14:08;4.90;68.10
12315;DHT22;23886;46.614;14.276;2023-04-05T19:16:35;4.80;68.50
12315;DHT22;23886;46.614;14.276;2023-04-05T19:19:03;4.70;69.20
12315;DHT22;23886;46.614;14.276;2023-04-05T19:21:31;4.70;69.00
12315;DHT22;23886;46.614;14.276;2023-04-05T19:23:58;4.70;68.90
12315;DHT22;23886;46.614;14.276;2023-04-05T19:26:25;4.60;68.90
12315;DHT22;23886;46.614;14.276;2023-04-05T19:28:52;4.50;69.60
12315;DHT22;23886;46.614;14.276;2023-04-05T19:31:20;4.60;69.20
12315;DHT22;23886;46.614;14.276;2023-04-05T19:33:47;4.50;69.60
12315;DHT22;23886;46.614;14.276;2023-04-05T19:36:16;4.40;69.60
12315;DHT22;23886;46.614;14.276;2023-04-05T19:38:43;4.40;69.60
12315;DHT22;23886;46.614;14.276;2023-04-05T19:41:10;4.40;69.80
12315;DHT22;23886;46.614;14.276;2023-04-05T19:43:37;4.40;70.80
12315;DHT22;23886;46.614;14.276;2023-04-05T19:46:07;4.40;70.30
12315;DHT22;23886;46.614;14.276;2023-04-05T19:48:36;4.40;70.40
12315;DHT22;23886;46.614;14.276;2023-04-05T19:51:05;4.20;70.30
12315;DHT22;23886;46.614;14.276;2023-04-05T19:53:44;4.20;70.10
12315;DHT22;23886;46.614;14.276;2023-04-05T19:56:15;4.10;70.70
12315;DHT22;23886;46.614;14.276;2023-04-05T19:58:43;4.20;70.60
12315;DHT22;23886;46.614;14.276;2023-04-05T20:01:23;4.00;70.70
12315;DHT22;23886;46.614;14.276;2023-04-05T20:03:54;4.00;71.80
12315;DHT22;23886;46.614;14.276;2023-04-05T20:06:22;3.90;71.70
12315;DHT22;23886;46.614;14.276;2023-04-05T20:08:53;3.80;72.00
12315;DHT22;23886;46.614;14.276;2023-04-05T20:11:23;3.80;72.20
12315;DHT22;23886;46.614;14.276;2023-04-05T20:13:54;3.70;71.80
12315;DHT22;23886;46.614;14.276;2023-04-05T20:16:25;3.60;72.30